MMML/MXL METAR and TAF weather

Enter ICAO airport designator
Station Type Date Time Source
MMML METAR 2020/04/05 05:41 UTC NOAA

MMML 050541Z 35005KT 10SM SKC 18/05 A2977 RMK SLP081 52013 960


Station Type Date Time Source
MMML Decoded METAR 2020/04/05 05:41 UTC NOAA

Mexicali International Airport , Mexico (MMML) 32-38N 117-00W
Apr 05, 2020 - 01:41 AM EDT / 2020.04.05 0541 UTC
Wind: from the N (350 degrees) at 6 MPH (5 KT):0
Visibility: 10 mile(s):0
Sky conditions: clear
Temperature: 64 F (18 C)
Dew Point: 41 F (5 C)
Relative Humidity: 42%
Pressure (altimeter): 29.77 in. Hg (1008 hPa)
Pressure tendency: 0.04 inches (1.3 hPa) higher than three hours ago
ob: MMML 050541Z 35005KT 10SM SKC 18/05 A2977 RMK SLP081 52013 960
cycle: 5

Station Type Date Time Source
MMML TAF 2020/04/05 06:12 UTC NOAA

TAF MMML 050505Z 0506/0606 30005KT P6SM SKC
FM051800 16010KT P6SM SKC
FM060200 30005KT P6SM SCT250

Example: see airport list